createdAt,value
2017-12-17T00:00:53.050Z,42.2
2017-12-17T00:01:54.947Z,42.1
2017-12-17T00:02:56.288Z,42.1
2017-12-17T00:03:58.183Z,42.1
2017-12-17T00:04:59.522Z,42.3
2017-12-17T00:06:01.141Z,42.3
2017-12-17T00:07:02.180Z,42.1
2017-12-17T00:08:03.521Z,42.2
2017-12-17T00:09:05.166Z,42.1
2017-12-17T00:10:07.063Z,42.1
2017-12-17T00:11:08.680Z,42.2
2017-12-17T00:12:10.575Z,42.2
2017-12-17T00:13:12.180Z,42.1
2017-12-17T00:14:13.520Z,42
2017-12-17T00:15:15.140Z,42
2017-12-17T00:16:16.461Z,42.1
2017-12-17T00:17:18.084Z,42.4
2017-12-17T00:18:20.002Z,42.3
2017-12-17T00:19:21.919Z,42.1
2017-12-17T00:20:23.518Z,42
2017-12-17T00:21:25.447Z,42.3
2017-12-17T00:22:27.330Z,42.1
2017-12-17T00:23:28.950Z,42.2
2017-12-17T00:24:30.570Z,42.1
2017-12-17T00:25:32.171Z,42.2
2017-12-17T00:26:33.789Z,42.2
2017-12-17T00:27:35.414Z,42.1
2017-12-17T00:28:37.026Z,42.2
2017-12-17T00:29:38.925Z,42.4
2017-12-17T00:30:40.824Z,42.2
2017-12-17T00:31:42.440Z,42.5
2017-12-17T00:32:44.335Z,42.5
2017-12-17T00:33:45.954Z,42.2
2017-12-17T00:34:47.851Z,42.4
2017-12-17T00:35:49.470Z,42.2
2017-12-17T00:36:51.368Z,42.1
2017-12-17T00:37:52.985Z,42.5
2017-12-17T00:38:54.327Z,42.1
2017-12-17T00:39:56.223Z,42.1
2017-12-17T00:40:57.542Z,42.3
2017-12-17T00:41:59.159Z,42.5
2017-12-17T00:43:00.776Z,42.2
2017-12-17T00:44:02.399Z,42.5
2017-12-17T00:45:04.313Z,42.3
2017-12-17T00:46:05.719Z,42.5
2017-12-17T00:47:07.273Z,42.4
2017-12-17T00:48:08.618Z,42.5
2017-12-17T00:49:10.247Z,42.4
2017-12-17T00:50:11.865Z,42.3
2017-12-17T00:51:13.769Z,42.5
2017-12-17T00:52:15.373Z,42.1
2017-12-17T00:53:17.019Z,42.4
2017-12-17T00:54:18.638Z,42.2
2017-12-17T00:55:20.259Z,42.2
2017-12-17T00:56:22.154Z,42.2
2017-12-17T00:57:23.775Z,42.1
2017-12-17T00:58:25.674Z,42.1
2017-12-17T00:59:27.029Z,42.2
2017-12-17T01:00:28.369Z,42.2
2017-12-17T01:01:30.265Z,42.3
2017-12-17T01:02:31.861Z,42.3
2017-12-17T01:03:33.203Z,42.3
2017-12-17T01:04:34.824Z,42.2
2017-12-17T01:05:36.424Z,42
2017-12-17T01:06:37.468Z,42.2
2017-12-17T01:07:39.091Z,42.3
2017-12-17T01:08:40.990Z,42.1
2017-12-17T01:09:42.892Z,42.2
2017-12-17T01:10:44.787Z,42.3
2017-12-17T01:11:46.687Z,42.3
2017-12-17T01:12:48.303Z,42.1
2017-12-17T01:13:49.645Z,42.1
2017-12-17T01:14:51.538Z,42.3
2017-12-17T01:15:53.155Z,42.2
2017-12-17T01:16:54.754Z,42.3
2017-12-17T01:17:56.361Z,42.5
2017-12-17T01:18:58.031Z,42.2
2017-12-17T01:19:59.928Z,42.3
2017-12-17T01:21:01.826Z,42.4
2017-12-17T01:22:03.449Z,42.4
2017-12-17T01:23:05.066Z,42.1
2017-12-17T01:24:06.965Z,42.4
2017-12-17T01:25:08.584Z,42.2
2017-12-17T01:26:10.494Z,42.2
2017-12-17T01:27:12.108Z,42.1
2017-12-17T01:28:13.743Z,42.1
2017-12-17T01:29:15.340Z,42.1
2017-12-17T01:30:16.982Z,42
2017-12-17T01:31:18.880Z,42.2
2017-12-17T01:32:20.225Z,42.2
2017-12-17T01:33:22.122Z,42.1
2017-12-17T01:34:23.744Z,42.2
2017-12-17T01:35:24.784Z,42.1
2017-12-17T01:36:26.406Z,42.1
2017-12-17T01:37:28.026Z,42.1
2017-12-17T01:38:29.371Z,42.1
2017-12-17T01:39:30.712Z,42.1
2017-12-17T01:40:32.333Z,42.1
2017-12-17T01:41:34.227Z,42.1
2017-12-17T01:42:35.847Z,42.2
2017-12-17T01:43:37.752Z,42.2
2017-12-17T01:44:39.649Z,42.2
2017-12-17T01:45:40.996Z,42.2
2017-12-17T01:46:42.340Z,42.2
2017-12-17T01:47:43.382Z,42
2017-12-17T01:48:44.978Z,41.9
2017-12-17T01:49:46.619Z,42
2017-12-17T01:50:48.219Z,42.2
2017-12-17T01:51:50.115Z,42.2
2017-12-17T01:52:51.733Z,42.1
2017-12-17T01:53:53.630Z,42.2
2017-12-17T01:54:55.248Z,42
2017-12-17T01:55:57.143Z,42.2
2017-12-17T01:56:59.038Z,42.2
2017-12-17T01:58:00.935Z,42.1
2017-12-17T01:59:02.273Z,42.2
2017-12-17T02:00:04.170Z,42.1
2017-12-17T02:01:06.073Z,42.2
2017-12-17T02:02:07.969Z,41.9
2017-12-17T02:03:09.868Z,41.9
2017-12-17T02:04:11.490Z,42.2
2017-12-17T02:05:13.389Z,42.1
2017-12-17T02:06:15.007Z,42.2
2017-12-17T02:07:16.054Z,42.2
2017-12-17T02:08:17.967Z,41.8
2017-12-17T02:09:19.568Z,42.1
2017-12-17T02:10:21.216Z,42.2
2017-12-17T02:11:23.122Z,42.2
2017-12-17T02:12:24.162Z,42.1
2017-12-17T02:13:25.482Z,42.1
2017-12-17T02:14:26.526Z,42.1
2017-12-17T02:15:27.869Z,42.1
2017-12-17T02:16:29.216Z,41.8
2017-12-17T02:17:31.116Z,41.7
2017-12-17T02:18:33.013Z,42.1
2017-12-17T02:19:34.059Z,42
2017-12-17T02:20:35.955Z,42.1
2017-12-17T02:21:37.576Z,41.8
2017-12-17T02:22:38.920Z,41.6
2017-12-17T02:23:40.540Z,42
2017-12-17T02:24:42.160Z,42.2
2017-12-17T02:25:43.778Z,41.5
2017-12-17T02:26:45.103Z,42.1
2017-12-17T02:27:46.704Z,42.2
2017-12-17T02:28:47.750Z,41.7
2017-12-17T02:29:49.646Z,41.7
2017-12-17T02:30:51.251Z,41.8
2017-12-17T02:31:52.572Z,42
2017-12-17T02:32:53.616Z,42
2017-12-17T02:33:54.938Z,42
2017-12-17T02:34:55.984Z,42.2
2017-12-17T02:35:57.881Z,41.7
2017-12-17T02:36:59.504Z,42.2
2017-12-17T02:38:01.464Z,41.8
2017-12-17T02:39:03.369Z,41.8
2017-12-17T02:40:04.983Z,41.7
2017-12-17T02:41:06.885Z,42
2017-12-17T02:42:08.483Z,42.2
2017-12-17T02:43:09.806Z,41.6
2017-12-17T02:44:11.426Z,41.9
2017-12-17T02:45:13.324Z,41.7
2017-12-17T02:46:14.950Z,42.1
2017-12-17T02:47:16.570Z,41.7
2017-12-17T02:48:18.480Z,41.8
2017-12-17T02:49:20.122Z,42.2
2017-12-17T02:50:21.743Z,41.8
2017-12-17T02:51:23.341Z,41.7
2017-12-17T02:52:25.240Z,41.8
2017-12-17T02:53:27.140Z,41.8
2017-12-17T02:54:28.743Z,41.7
2017-12-17T02:55:30.364Z,41.8
2017-12-17T02:56:31.988Z,41.8
2017-12-17T02:57:33.609Z,41.9
2017-12-17T02:58:35.510Z,41.8
2017-12-17T02:59:37.406Z,41.6
2017-12-17T03:00:39.005Z,41.8
2017-12-17T03:01:40.349Z,42
2017-12-17T03:02:42.247Z,41.8
2017-12-17T03:03:43.866Z,41.9
2017-12-17T03:04:45.188Z,41.8
2017-12-17T03:05:47.086Z,41.9
2017-12-17T03:06:48.754Z,41.9
2017-12-17T03:07:50.077Z,41.8
2017-12-17T03:08:51.975Z,42.1
2017-12-17T03:09:53.297Z,41.9
2017-12-17T03:10:54.915Z,41.9
2017-12-17T03:11:56.814Z,42.2
2017-12-17T03:13:49.757Z,42.2
2017-12-17T03:14:51.376Z,41.9
2017-12-17T03:15:53.283Z,41.8
2017-12-17T03:16:55.174Z,42.1
2017-12-17T03:17:56.805Z,42.2
2017-12-17T03:18:58.705Z,41.9
2017-12-17T03:20:00.607Z,41.9
2017-12-17T03:21:02.229Z,41.9
2017-12-17T03:22:04.127Z,41.8
2017-12-17T03:23:06.049Z,42.2
2017-12-17T03:24:07.670Z,42.1
2017-12-17T03:25:09.291Z,41.8
2017-12-17T03:26:11.192Z,41.9
2017-12-17T03:27:12.791Z,42.2
2017-12-17T03:28:14.692Z,42.3
2017-12-17T03:29:16.312Z,42.1
2017-12-17T03:30:18.208Z,42.1
2017-12-17T03:31:20.116Z,41.9
2017-12-17T03:32:22.011Z,42
2017-12-17T03:33:23.630Z,41.9
2017-12-17T03:34:25.254Z,41.8
2017-12-17T03:35:26.662Z,41.8
2017-12-17T03:36:28.558Z,41.9
2017-12-17T03:37:29.884Z,41.8
2017-12-17T03:38:31.506Z,41.9
2017-12-17T03:39:32.828Z,42
2017-12-17T03:40:34.732Z,41.8
2017-12-17T03:41:36.331Z,41.9
2017-12-17T03:42:37.653Z,41.9
2017-12-17T03:43:39.617Z,42.2
2017-12-17T03:44:41.537Z,42.2
2017-12-17T03:45:43.434Z,41.7
2017-12-17T03:46:45.333Z,41.9
2017-12-17T03:47:47.233Z,42.1
2017-12-17T03:48:49.131Z,41.8
2017-12-17T03:49:50.455Z,41.9
2017-12-17T03:50:51.774Z,41.8
2017-12-17T03:51:53.409Z,41.9
2017-12-17T03:52:54.728Z,41.9
2017-12-17T03:53:56.624Z,41.8
2017-12-17T03:54:58.522Z,41.9
2017-12-17T03:55:59.862Z,41.9
2017-12-17T03:57:00.926Z,41.9
2017-12-17T03:58:02.526Z,41.9
2017-12-17T03:59:03.867Z,41.7
2017-12-17T04:00:05.756Z,41.7
2017-12-17T04:01:07.101Z,41.7
2017-12-17T04:02:08.427Z,42
2017-12-17T04:03:10.051Z,41.7
2017-12-17T04:04:11.376Z,41.6
2017-12-17T04:05:12.696Z,41.8
2017-12-17T04:06:14.315Z,41.7
2017-12-17T04:07:15.641Z,41.6
2017-12-17T04:08:17.538Z,42
2017-12-17T04:09:18.898Z,41.7
2017-12-17T04:10:20.795Z,41.6
2017-12-17T04:11:22.692Z,41.6
2017-12-17T04:12:24.024Z,41.6
2017-12-17T04:13:25.364Z,41.6
2017-12-17T04:14:26.964Z,41.8
2017-12-17T04:15:28.587Z,41.6
2017-12-17T04:16:30.482Z,41.6
2017-12-17T04:17:32.079Z,41.6
2017-12-17T04:18:33.422Z,42
2017-12-17T04:19:35.044Z,41.6
2017-12-17T04:20:36.641Z,41.6
2017-12-17T04:21:38.263Z,42.1
2017-12-17T04:22:40.161Z,41.9
2017-12-17T04:23:41.783Z,41.6
2017-12-17T04:24:43.104Z,41.7
2017-12-17T04:25:44.728Z,41.6
2017-12-17T04:26:46.682Z,41.7
2017-12-17T04:27:48.282Z,41.8
2017-12-17T04:28:50.179Z,41.9
2017-12-17T04:29:51.503Z,41.7
2017-12-17T04:30:53.401Z,41.9
2017-12-17T04:31:55.297Z,41.9
2017-12-17T04:32:56.921Z,41.8
2017-12-17T04:33:58.313Z,41.4
2017-12-17T04:34:59.935Z,41.4
2017-12-17T04:36:01.552Z,41.8
2017-12-17T04:37:03.450Z,41.8
2017-12-17T04:38:05.070Z,41.7
2017-12-17T04:39:06.416Z,41.8
2017-12-17T04:40:07.814Z,41.9
2017-12-17T04:41:09.432Z,41.7
2017-12-17T04:42:10.758Z,41.8
2017-12-17T04:43:12.656Z,41.4
2017-12-17T04:44:14.275Z,41.8
2017-12-17T04:45:15.894Z,41.8
2017-12-17T04:46:17.791Z,41.8
2017-12-17T04:47:19.690Z,41.8
2017-12-17T04:48:21.306Z,41.6
2017-12-17T04:49:22.927Z,41.8
2017-12-17T04:50:24.826Z,41.8
2017-12-17T04:51:26.448Z,41.8
2017-12-17T04:52:27.770Z,41.4
2017-12-17T04:53:29.113Z,41.7
2017-12-17T04:54:30.745Z,41.8
2017-12-17T04:55:32.640Z,41.6
2017-12-17T04:56:34.251Z,41.7
2017-12-17T04:57:35.314Z,41.7
2017-12-17T04:58:37.208Z,41.7
2017-12-17T04:59:38.810Z,41.6
2017-12-17T05:00:40.135Z,41.6
2017-12-17T05:01:41.761Z,41.7
2017-12-17T05:02:43.102Z,41.7
2017-12-17T05:03:44.721Z,41.4
2017-12-17T05:04:46.341Z,41.7
2017-12-17T05:05:47.961Z,41.8
2017-12-17T05:06:49.584Z,41.6
2017-12-17T05:07:51.207Z,41.5
2017-12-17T05:08:52.871Z,41.7
2017-12-17T05:09:54.472Z,41.8
2017-12-17T05:10:55.940Z,41.7
2017-12-17T05:11:57.908Z,41.7
2017-12-17T05:12:59.512Z,41.6
2017-12-17T05:14:00.850Z,41.4
2017-12-17T05:15:02.447Z,41.7
2017-12-17T05:16:04.084Z,41.6
2017-12-17T05:17:05.705Z,41.7
2017-12-17T05:18:07.611Z,41.7
2017-12-17T05:19:08.674Z,41.7
2017-12-17T05:20:10.603Z,41.9
2017-12-17T05:21:12.499Z,41.7
2017-12-17T05:22:14.102Z,41.7
2017-12-17T05:23:15.999Z,41.7
2017-12-17T05:24:17.599Z,41.4
2017-12-17T05:25:19.219Z,41.7
2017-12-17T05:26:20.630Z,41.3
2017-12-17T05:27:21.961Z,41.7
2017-12-17T05:28:23.862Z,41.3
2017-12-17T05:29:25.478Z,41.3
2017-12-17T05:30:27.157Z,41.4
2017-12-17T05:31:29.043Z,41.4
2017-12-17T05:32:30.682Z,41.3
2017-12-17T05:33:32.300Z,41.3
2017-12-17T05:34:33.910Z,41.3
2017-12-17T05:35:35.827Z,41.4
2017-12-17T05:36:37.723Z,41.3
2017-12-17T05:37:39.622Z,41.6
2017-12-17T05:38:40.942Z,41.4
2017-12-17T05:39:42.930Z,41.2
2017-12-17T05:40:44.602Z,41.3
2017-12-17T05:41:46.221Z,41.4
2017-12-17T05:42:47.822Z,41.3
2017-12-17T05:43:49.440Z,41.6
2017-12-17T05:44:51.336Z,41.4
2017-12-17T05:45:53.234Z,41.4
2017-12-17T05:46:55.133Z,41.6
2017-12-17T05:47:57.029Z,41.2
2017-12-17T05:48:58.649Z,41.6
2017-12-17T05:50:00.550Z,41.4
2017-12-17T05:51:01.894Z,41.3
2017-12-17T05:52:03.214Z,41.3
2017-12-17T05:53:04.836Z,41.2
2017-12-17T05:54:06.161Z,41.6
2017-12-17T05:55:07.777Z,41.2
2017-12-17T05:56:09.396Z,41.6
2017-12-17T05:57:11.304Z,41.5
2017-12-17T05:58:12.695Z,41.7
2017-12-17T05:59:14.313Z,41.3
2017-12-17T06:00:15.949Z,41.4
2017-12-17T06:01:17.294Z,41.4
2017-12-17T06:02:18.911Z,41.3
2017-12-17T06:03:20.807Z,41.3
2017-12-17T06:04:22.427Z,41.3
2017-12-17T06:05:24.325Z,41.3
2017-12-17T06:06:26.223Z,41.4
2017-12-17T06:07:27.895Z,41.3
2017-12-17T06:09:27.008Z,41.3
2017-12-17T06:10:28.604Z,41.5
2017-12-17T06:11:30.221Z,41.6
2017-12-17T06:12:31.542Z,41.6
2017-12-17T06:13:32.864Z,41.6
2017-12-17T06:14:34.481Z,41.3
2017-12-17T06:15:36.377Z,41.2
2017-12-17T06:16:38.312Z,41.5
2017-12-17T06:17:39.651Z,41.6
2017-12-17T06:18:41.559Z,41.4
2017-12-17T06:19:43.175Z,41.6
2017-12-17T06:22:50.441Z,41.6
2017-12-17T06:23:52.339Z,41.6
2017-12-17T06:24:53.672Z,41.4
2017-12-17T06:25:55.557Z,41.6
2017-12-17T06:26:57.156Z,41.5
2017-12-17T06:27:58.481Z,41.6
2017-12-17T06:29:00.101Z,41.5
2017-12-17T06:30:01.450Z,41.5
2017-12-17T06:31:03.356Z,41.5
2017-12-17T06:32:04.692Z,41.4
2017-12-17T06:33:06.347Z,41.5
2017-12-17T06:34:07.971Z,41.4
2017-12-17T06:35:09.316Z,41.4
2017-12-17T06:36:11.210Z,41.5
2017-12-17T06:37:12.833Z,41.4
2017-12-17T06:38:14.456Z,41.6
2017-12-17T06:39:15.788Z,41.3
2017-12-17T06:40:17.674Z,41.4
2017-12-17T06:41:19.294Z,41.4
2017-12-17T06:42:21.193Z,41.6
2017-12-17T06:43:22.535Z,41.5
2017-12-17T06:44:23.603Z,41.6
2017-12-17T06:45:25.246Z,41.4
2017-12-17T06:46:27.142Z,41.5
2017-12-17T06:47:29.052Z,41.5
2017-12-17T06:48:30.377Z,41.5
2017-12-17T06:49:31.994Z,41.5
2017-12-17T06:50:33.893Z,41.5
2017-12-17T06:51:35.215Z,41.5
2017-12-17T06:52:37.110Z,41.5
2017-12-17T06:53:38.759Z,41.5
2017-12-17T06:54:40.387Z,41.5
2017-12-17T06:55:42.276Z,41.4
2017-12-17T06:56:44.175Z,41.4
2017-12-17T06:57:46.072Z,41.5
2017-12-17T06:58:47.670Z,41.4
2017-12-17T06:59:49.569Z,41.5
2017-12-17T07:00:51.166Z,41.4
2017-12-17T07:01:55.822Z,41.3
2017-12-17T07:03:10.177Z,41.3
2017-12-17T07:04:12.074Z,41.6
2017-12-17T07:05:15.173Z,41.6
2017-12-17T07:06:16.770Z,41.3
2017-12-17T07:07:18.390Z,41.3
2017-12-17T07:09:59.837Z,41.4
2017-12-17T07:11:01.466Z,41.6
2017-12-17T07:12:03.064Z,41.5
2017-12-17T07:13:04.667Z,41.2
2017-12-17T07:14:06.563Z,41.6
2017-12-17T07:15:07.910Z,41.6
2017-12-17T07:16:09.254Z,41.1
2017-12-17T07:17:10.592Z,41.1
2017-12-17T07:18:12.218Z,41.7
2017-12-17T07:19:13.836Z,41.1
2017-12-17T07:20:15.776Z,41.4
2017-12-17T07:21:17.379Z,41.2
2017-12-17T07:22:18.721Z,41.5
2017-12-17T07:23:20.619Z,41.5
2017-12-17T07:24:22.523Z,41.2
2017-12-17T07:25:24.420Z,41.2
2017-12-17T07:26:26.018Z,41.1
2017-12-17T07:27:27.339Z,41.1
2017-12-17T07:28:29.238Z,41.5
2017-12-17T07:29:30.894Z,41.6
2017-12-17T07:30:32.516Z,41.6
2017-12-17T07:31:34.137Z,41.1
2017-12-17T07:32:36.038Z,41.5
2017-12-17T07:33:37.381Z,41.4
2017-12-17T07:34:39.002Z,41.3
2017-12-17T07:35:40.904Z,41.3
2017-12-17T07:36:42.804Z,41.2
2017-12-17T07:37:44.411Z,41.6
2017-12-17T07:38:46.034Z,41.6
2017-12-17T07:39:47.656Z,41.3
2017-12-17T07:40:49.609Z,41.2
2017-12-17T07:41:51.228Z,41.6
2017-12-17T07:42:52.568Z,41.2
2017-12-17T07:43:54.166Z,41.2
2017-12-17T07:44:55.487Z,41.1
2017-12-17T07:45:57.387Z,41.1
2017-12-17T07:46:59.008Z,41.1
2017-12-17T07:48:00.628Z,41.5
2017-12-17T07:49:01.956Z,41.2
2017-12-17T07:50:03.576Z,41.1
2017-12-17T07:51:05.473Z,41.3
2017-12-17T07:52:07.372Z,41.1
2017-12-17T07:53:09.271Z,41.8
2017-12-17T07:54:11.179Z,41.1
2017-12-17T07:55:12.502Z,41.1
2017-12-17T07:56:14.403Z,41.7
2017-12-17T07:57:16.020Z,41.3
2017-12-17T07:58:17.068Z,41.7
2017-12-17T07:59:18.411Z,41.3
2017-12-17T08:00:20.028Z,41.6
2017-12-17T08:01:21.931Z,41.3
2017-12-17T08:02:23.835Z,41.1
2017-12-17T08:03:25.737Z,41.3
2017-12-17T08:04:27.357Z,41.4
2017-12-17T08:05:28.962Z,41.9
2017-12-17T08:06:30.286Z,41.3
2017-12-17T08:07:32.182Z,41.3
2017-12-17T08:08:33.805Z,41.7
2017-12-17T08:09:35.700Z,41.7
2017-12-17T08:10:37.321Z,41.7
2017-12-17T08:11:38.945Z,41.5
2017-12-17T08:12:40.291Z,41.7
2017-12-17T08:13:41.910Z,41.9
2017-12-17T08:14:43.811Z,41.3
2017-12-17T08:15:45.463Z,41.1
2017-12-17T08:16:47.089Z,41.4
2017-12-17T08:17:48.431Z,41.4
2017-12-17T08:18:49.480Z,41.3
2017-12-17T08:19:50.804Z,41.3
2017-12-17T08:20:52.428Z,41.4
2017-12-17T08:21:54.373Z,41.7
2017-12-17T08:22:56.273Z,41.3
2017-12-17T08:23:57.616Z,41.4
2017-12-17T08:24:59.238Z,41.3
2017-12-17T08:26:01.140Z,41.3
2017-12-17T08:27:03.037Z,41.3
2017-12-17T08:28:04.938Z,41.5
2017-12-17T08:29:06.289Z,41.5
2017-12-17T08:30:07.616Z,41.4
2017-12-17T08:31:09.239Z,41.4
2017-12-17T08:32:10.912Z,41.6
2017-12-17T08:33:12.256Z,41.3
2017-12-17T08:34:13.580Z,41.3
2017-12-17T08:35:15.480Z,41.5
2017-12-17T08:36:17.104Z,41.4
2017-12-17T08:37:18.433Z,41.3
2017-12-17T08:38:20.047Z,41.5
2017-12-17T08:39:21.371Z,41.4
2017-12-17T08:40:22.420Z,41.5
2017-12-17T08:41:23.740Z,41.5
2017-12-17T08:42:25.640Z,41.6
2017-12-17T08:43:26.968Z,41.5
2017-12-17T08:44:28.864Z,41.4
2017-12-17T08:45:30.187Z,41.4
2017-12-17T08:46:31.534Z,41.4
2017-12-17T08:47:33.151Z,41.6
2017-12-17T08:48:34.195Z,41.6
2017-12-17T08:49:36.102Z,41.6
2017-12-17T08:50:38.004Z,41.5
2017-12-17T08:51:39.953Z,41.6
2017-12-17T08:52:41.552Z,41.1
2017-12-17T08:53:42.875Z,41.3
2017-12-17T08:54:44.497Z,41.6
2017-12-17T08:55:45.821Z,41.1
2017-12-17T08:56:47.428Z,41.3
2017-12-17T08:57:48.800Z,41.4
2017-12-17T08:58:50.122Z,41.1
2017-12-17T08:59:51.495Z,41.4
2017-12-17T09:00:52.837Z,41.1
2017-12-17T09:01:54.462Z,41
2017-12-17T09:02:55.804Z,41.3
2017-12-17T09:03:57.147Z,41.3
2017-12-17T09:04:58.748Z,41.5
2017-12-17T09:06:00.368Z,41.2
2017-12-17T09:07:02.263Z,41.2
2017-12-17T09:08:03.881Z,41.1
2017-12-17T09:09:05.228Z,41.5
2017-12-17T09:10:06.569Z,41.1
2017-12-17T09:11:08.469Z,41.3
2017-12-17T09:12:09.892Z,41.1
2017-12-17T09:13:11.510Z,41.4
2017-12-17T09:14:13.108Z,41.2
2017-12-17T09:15:15.008Z,41.3
2017-12-17T09:16:16.904Z,40.9
2017-12-17T09:17:18.805Z,41.2
2017-12-17T09:18:20.130Z,41.2
2017-12-17T09:19:22.029Z,40.9
2017-12-17T09:20:23.372Z,41.5
2017-12-17T09:21:25.269Z,41.2
2017-12-17T09:22:27.186Z,41.1
2017-12-17T09:23:28.522Z,41.4
2017-12-17T09:24:30.141Z,41.5
2017-12-17T09:25:31.762Z,41.1
2017-12-17T09:26:33.108Z,41
2017-12-17T09:27:35.010Z,41.2
2017-12-17T09:28:36.911Z,41.4
2017-12-17T09:29:38.811Z,41
2017-12-17T09:30:40.709Z,41
2017-12-17T09:31:42.334Z,41.5
2017-12-17T09:32:43.957Z,41.3
2017-12-17T09:33:45.330Z,41.2
2017-12-17T09:34:46.951Z,41
2017-12-17T09:35:48.853Z,41.3
2017-12-17T09:36:50.452Z,41.3
2017-12-17T09:37:52.075Z,41.1
2017-12-17T09:38:53.701Z,41.1
2017-12-17T09:39:55.599Z,41
2017-12-17T09:40:57.219Z,41.3
2017-12-17T09:41:58.563Z,41.1
2017-12-17T09:43:00.467Z,41.3
2017-12-17T09:44:02.091Z,41.1
2017-12-17T09:45:03.133Z,41.2
2017-12-17T09:46:05.031Z,41.1
2017-12-17T09:47:06.360Z,41.2
2017-12-17T09:48:07.697Z,41
2017-12-17T09:49:09.318Z,41.1
2017-12-17T09:50:10.661Z,41.1
2017-12-17T09:51:12.283Z,41
2017-12-17T09:52:14.179Z,41
2017-12-17T09:53:15.245Z,41
2017-12-17T09:54:17.146Z,41
2017-12-17T09:55:18.489Z,41.1
2017-12-17T09:56:20.389Z,40.9
2017-12-17T09:57:22.290Z,41
2017-12-17T09:58:23.612Z,41.1
2017-12-17T09:59:25.236Z,41.1
2017-12-17T10:00:27.137Z,41.1
2017-12-17T10:01:29.037Z,40.9
2017-12-17T10:02:30.936Z,40.9
2017-12-17T10:03:32.258Z,41.1
2017-12-17T10:04:34.162Z,40.9
2017-12-17T10:05:35.784Z,41
2017-12-17T10:06:37.682Z,40.8
2017-12-17T10:07:39.030Z,41
2017-12-17T10:08:40.360Z,41
2017-12-17T10:09:42.256Z,40.6
2017-12-17T10:10:44.154Z,41
2017-12-17T10:11:45.771Z,41.1
2017-12-17T10:12:47.370Z,40.8
2017-12-17T10:13:49.273Z,40.9
2017-12-17T10:14:50.904Z,41
2017-12-17T10:15:52.521Z,41.1
2017-12-17T10:16:54.142Z,40.9
2017-12-17T10:17:56.090Z,40.9
2017-12-17T10:18:57.409Z,40.9
2017-12-17T10:19:58.783Z,41.1
2017-12-17T10:21:00.405Z,41
2017-12-17T10:22:01.744Z,40.9
2017-12-17T10:23:03.088Z,41
2017-12-17T10:24:04.987Z,40.8
2017-12-17T10:25:06.610Z,41.1
2017-12-17T10:26:08.234Z,40.9
2017-12-17T10:27:10.135Z,40.9
2017-12-17T10:28:11.750Z,41.1
2017-12-17T10:29:13.653Z,41.1
2017-12-17T10:30:14.700Z,40.9
2017-12-17T10:31:16.300Z,40.9
2017-12-17T10:32:17.690Z,41
2017-12-17T10:33:19.592Z,41
2017-12-17T10:34:20.912Z,41
2017-12-17T10:35:22.290Z,41
2017-12-17T10:36:24.185Z,41.1
2017-12-17T10:37:25.804Z,41
2017-12-17T10:38:27.410Z,41
2017-12-17T10:39:29.310Z,41
2017-12-17T10:40:31.208Z,40.9
2017-12-17T10:41:32.837Z,41
2017-12-17T10:42:33.898Z,40.8
2017-12-17T10:43:35.544Z,41.1
2017-12-17T10:44:37.438Z,41
2017-12-17T10:45:39.114Z,41.1
2017-12-17T10:46:40.737Z,41
2017-12-17T10:47:41.787Z,40.9
2017-12-17T10:48:42.831Z,41.1
2017-12-17T10:49:44.434Z,41
2017-12-17T10:50:46.334Z,41.1
2017-12-17T10:51:47.952Z,41
2017-12-17T10:52:49.852Z,41.1
2017-12-17T10:53:51.454Z,40.7
2017-12-17T10:54:52.774Z,40.6
2017-12-17T10:55:54.119Z,40.9
2017-12-17T10:56:55.733Z,40.6
2017-12-17T10:57:57.630Z,41.1
2017-12-17T10:58:59.526Z,41.1
2017-12-17T11:00:00.857Z,40.5
2017-12-17T11:01:02.478Z,40.8
2017-12-17T11:02:03.800Z,40.8
2017-12-17T11:03:05.697Z,41.1
2017-12-17T11:04:07.593Z,40.8
2017-12-17T11:05:08.639Z,40.9
2017-12-17T11:06:10.537Z,40.7
2017-12-17T11:07:11.883Z,40.7
2017-12-17T11:08:13.788Z,40.8
2017-12-17T11:09:15.408Z,40.7
2017-12-17T11:10:17.010Z,41
2017-12-17T11:11:18.362Z,40.7
2017-12-17T11:12:19.982Z,41.1
2017-12-17T11:13:21.608Z,40.8
2017-12-17T11:14:23.213Z,41.1
2017-12-17T11:15:24.832Z,40.7
2017-12-17T11:17:36.288Z,41.1
2017-12-17T11:18:37.906Z,41.1
2017-12-17T11:19:38.955Z,41.1
2017-12-17T11:20:40.845Z,40.6
2017-12-17T11:21:42.470Z,40.8
2017-12-17T11:22:44.083Z,41.1
2017-12-17T11:23:45.704Z,40.7
2017-12-17T11:24:47.323Z,40.8
2017-12-17T11:25:49.221Z,40.7
2017-12-17T11:26:50.561Z,41.1
2017-12-17T11:27:52.179Z,40.7
2017-12-17T11:28:54.077Z,40.5
2017-12-17T11:29:55.976Z,40.7
2017-12-17T11:30:57.294Z,40.7
2017-12-17T11:31:59.193Z,40.9
2017-12-17T11:33:00.811Z,40.7
2017-12-17T11:34:02.713Z,40.8
2017-12-17T11:35:04.309Z,41.1
2017-12-17T11:36:05.927Z,40.7
2017-12-17T11:37:07.526Z,41.1
2017-12-17T11:38:08.866Z,41
2017-12-17T11:39:10.484Z,40.6
2017-12-17T11:40:12.108Z,41.1
2017-12-17T11:41:14.010Z,41.1
2017-12-17T11:42:15.628Z,41
2017-12-17T11:43:17.248Z,40.6
2017-12-17T11:44:18.866Z,40.5
2017-12-17T11:45:19.928Z,40.8
2017-12-17T11:46:21.827Z,41
2017-12-17T11:47:23.447Z,40.4
2017-12-17T11:48:25.048Z,40.3
2017-12-17T11:49:26.665Z,40.4
2017-12-17T11:50:28.298Z,40.5
2017-12-17T11:51:29.633Z,40.5
2017-12-17T11:52:31.256Z,40.5
2017-12-17T11:53:32.594Z,40.2
2017-12-17T11:54:34.495Z,40.6
2017-12-17T11:55:36.437Z,40.5
2017-12-17T11:56:37.784Z,40.3
2017-12-17T11:57:38.847Z,40.4
2017-12-17T11:58:40.467Z,40.4
2017-12-17T11:59:42.089Z,40.5
2017-12-17T12:00:43.987Z,40.9
2017-12-17T12:01:45.612Z,40.3
2017-12-17T12:02:46.954Z,40.6
2017-12-17T12:03:48.572Z,40.3
2017-12-17T12:04:49.927Z,40.7
2017-12-17T12:05:51.823Z,40.6
2017-12-17T12:06:53.442Z,40.7
2017-12-17T12:07:55.339Z,40.1
2017-12-17T12:08:57.234Z,40.3
2017-12-17T12:09:58.559Z,40.3
2017-12-17T12:10:59.604Z,40.3
2017-12-17T12:12:01.220Z,40.4
2017-12-17T12:13:02.316Z,40.3
2017-12-17T12:14:03.659Z,40.8
2017-12-17T12:15:05.290Z,40.4
2017-12-17T12:16:06.909Z,40.3
2017-12-17T12:17:08.240Z,40.4
2017-12-17T12:18:10.141Z,40.2
2017-12-17T12:19:12.039Z,40.5
2017-12-17T12:20:13.639Z,40.4
2017-12-17T12:21:15.240Z,40.5
2017-12-17T12:22:17.141Z,40.8
2017-12-17T12:23:18.480Z,40.6
2017-12-17T12:24:20.381Z,40.4
2017-12-17T12:25:21.424Z,40.2
2017-12-17T12:26:23.327Z,40.9
2017-12-17T12:27:24.650Z,40.2
2017-12-17T12:28:25.973Z,40.4
2017-12-17T12:29:27.592Z,40.2
2017-12-17T12:30:29.489Z,40.2
2017-12-17T12:31:31.388Z,40.2
2017-12-17T12:32:33.287Z,40.7
2017-12-17T12:33:35.185Z,40.4
2017-12-17T12:34:36.806Z,40.1
2017-12-17T12:35:37.857Z,40.1
2017-12-17T12:36:39.471Z,40.2
2017-12-17T12:37:41.088Z,40
2017-12-17T12:38:42.736Z,40.2
2017-12-17T12:39:44.061Z,40.8
2017-12-17T12:40:45.962Z,40.1
2017-12-17T12:41:47.581Z,40.1
2017-12-17T12:42:49.480Z,40.8
2017-12-17T12:43:50.822Z,40.1
2017-12-17T12:44:52.722Z,40.2
2017-12-17T12:45:54.046Z,40.2
2017-12-17T12:46:55.394Z,40.7
2017-12-17T12:47:57.014Z,40.7
2017-12-17T12:48:58.054Z,40
2017-12-17T12:49:59.420Z,40.1
2017-12-17T12:51:01.041Z,40.1
2017-12-17T12:52:02.661Z,40.8
2017-12-17T12:53:04.564Z,40.8
2017-12-17T12:54:05.902Z,40.1
2017-12-17T12:55:07.813Z,40.2
2017-12-17T12:56:09.428Z,40.2
2017-12-17T12:57:11.027Z,40.7
2017-12-17T12:58:12.644Z,40.8
2017-12-17T12:59:14.541Z,40.1
2017-12-17T13:00:16.441Z,40.2
2017-12-17T13:01:18.343Z,40.3
2017-12-17T13:02:19.964Z,40.5
2017-12-17T13:03:21.581Z,40.4
2017-12-17T13:04:23.485Z,40.3
2017-12-17T13:05:25.430Z,40.4
2017-12-17T13:06:26.742Z,40.2
2017-12-17T13:07:28.633Z,40.2
2017-12-17T13:08:30.254Z,40.6
2017-12-17T13:09:31.579Z,40.2
2017-12-17T13:10:33.198Z,40.7
2017-12-17T13:11:35.094Z,40.1
2017-12-17T13:12:36.780Z,40.7
2017-12-17T13:13:38.040Z,40.1
2017-12-17T13:14:39.359Z,40.1
2017-12-17T13:15:40.700Z,40.1
2017-12-17T13:16:42.594Z,40.8
2017-12-17T13:17:44.213Z,40.1
2017-12-17T13:18:46.107Z,40.6
2017-12-17T13:19:47.449Z,40.7
2017-12-17T13:20:49.345Z,40.8
2017-12-17T13:21:51.256Z,40.8
2017-12-17T13:22:52.878Z,40.6
2017-12-17T13:23:54.226Z,40
2017-12-17T13:24:55.852Z,40.1
2017-12-17T13:25:57.473Z,40.1
2017-12-17T13:26:59.097Z,40.7
2017-12-17T13:28:00.717Z,40.7
2017-12-17T13:29:02.040Z,40.1
2017-12-17T13:30:03.358Z,40.8
2017-12-17T13:31:05.259Z,40.2
2017-12-17T13:32:06.879Z,40.1
2017-12-17T13:33:08.776Z,40.4
2017-12-17T13:34:10.396Z,40.2
2017-12-17T13:35:11.996Z,40
2017-12-17T13:36:13.591Z,40.8
2017-12-17T13:37:15.494Z,40.6
2017-12-17T13:38:17.395Z,40.7
2017-12-17T13:39:18.739Z,40.1
2017-12-17T13:40:19.785Z,40.1
2017-12-17T13:41:21.678Z,40.2
2017-12-17T13:42:23.578Z,40.5
2017-12-17T13:43:24.897Z,40.2
2017-12-17T13:44:26.560Z,40.2
2017-12-17T13:45:28.580Z,40.6
2017-12-17T13:46:30.176Z,40.1
2017-12-17T13:47:32.078Z,40.6
2017-12-17T13:48:33.419Z,40.2
2017-12-17T13:49:35.019Z,40.7
2017-12-17T13:50:36.640Z,40.2
2017-12-17T13:51:38.066Z,40.1